createdAt,value
2018-05-25T00:00:41.267Z,2.77
2018-05-25T00:03:08.725Z,2.90
2018-05-25T00:05:36.181Z,2.20
2018-05-25T00:08:03.761Z,2.57
2018-05-25T00:10:31.237Z,2.23
2018-05-25T00:12:59.474Z,2.27
2018-05-25T00:15:26.942Z,2.70
2018-05-25T00:17:54.411Z,2.40
2018-05-25T00:20:21.987Z,2.20
2018-05-25T00:22:50.206Z,2.60
2018-05-25T00:25:22.844Z,2.27
2018-05-25T00:27:51.094Z,2.30
2018-05-25T00:30:18.549Z,2.40
2018-05-25T00:32:46.005Z,2.30
2018-05-25T00:35:13.477Z,2.37
2018-05-25T00:37:40.934Z,1.97
2018-05-25T00:40:08.389Z,2.30
2018-05-25T00:42:36.145Z,2.90
2018-05-25T00:45:03.597Z,2.60
2018-05-25T00:47:31.093Z,2.30
2018-05-25T00:49:59.321Z,2.40
2018-05-25T00:52:26.797Z,2.50
2018-05-25T00:55:07.081Z,2.60
2018-05-25T00:57:35.441Z,2.57
2018-05-25T01:00:02.893Z,2.20
2018-05-25T01:02:30.765Z,2.43
2018-05-25T01:04:59.761Z,2.50
2018-05-25T01:07:27.237Z,2.50
2018-05-25T01:09:55.419Z,2.60
2018-05-25T01:12:22.878Z,2.60
2018-05-25T01:14:50.301Z,2.30
2018-05-25T01:17:18.537Z,2.63
2018-05-25T01:19:45.966Z,2.37
2018-05-25T01:22:13.546Z,2.63
2018-05-25T01:24:40.970Z,2.30
2018-05-25T01:27:09.158Z,2.33
2018-05-25T01:29:36.638Z,2.27
2018-05-25T01:32:04.088Z,2.40
2018-05-25T01:34:31.515Z,2.47
2018-05-25T01:36:59.825Z,2.40
2018-05-25T01:39:27.245Z,2.47
2018-05-25T01:41:55.430Z,2.40
2018-05-25T01:44:23.618Z,2.63
2018-05-25T01:46:51.634Z,2.47
2018-05-25T01:49:19.050Z,2.40
2018-05-25T01:51:47.218Z,2.77
2018-05-25T01:54:14.768Z,2.53
2018-05-25T01:56:42.987Z,2.30
2018-05-25T01:59:10.417Z,3.00
2018-05-25T02:01:37.951Z,2.60
2018-05-25T02:04:06.143Z,2.90
2018-05-25T02:06:34.330Z,2.37
2018-05-25T02:09:01.787Z,2.60
2018-05-25T02:11:29.201Z,2.50
2018-05-25T02:13:56.938Z,2.37
2018-05-25T02:16:24.374Z,2.67
2018-05-25T02:18:51.797Z,2.47
2018-05-25T02:21:20.003Z,2.60
2018-05-25T02:23:47.425Z,2.70
2018-05-25T02:26:15.811Z,2.47
2018-05-25T02:28:44.005Z,2.67
2018-05-25T02:31:11.582Z,2.60
2018-05-25T02:33:39.062Z,2.47
2018-05-25T02:36:06.482Z,2.40
2018-05-25T02:38:33.922Z,2.63
2018-05-25T02:41:02.306Z,2.93
2018-05-25T02:43:29.755Z,2.80
2018-05-25T02:45:59.010Z,2.60
2018-05-25T02:48:26.442Z,3.37
2018-05-25T02:50:53.909Z,3.60
2018-05-25T02:53:21.322Z,2.80
2018-05-25T02:55:49.535Z,2.90
2018-05-25T02:58:17.005Z,2.90
2018-05-25T03:00:44.564Z,2.70
2018-05-25T03:03:11.931Z,2.40
2018-05-25T03:05:39.631Z,2.50
2018-05-25T03:08:07.879Z,2.53
2018-05-25T03:10:35.290Z,3.10
2018-05-25T03:13:03.324Z,2.87
2018-05-25T03:15:30.750Z,2.80
2018-05-25T03:17:58.201Z,2.47
2018-05-25T03:20:25.635Z,2.57
2018-05-25T03:22:53.397Z,2.60
2018-05-25T03:25:20.838Z,2.70
2018-05-25T03:27:49.146Z,2.70
2018-05-25T03:30:17.178Z,3.07
2018-05-25T03:32:45.357Z,2.80
2018-05-25T03:35:13.542Z,2.57
2018-05-25T03:37:41.141Z,2.80
2018-05-25T03:40:08.580Z,2.57
2018-05-25T03:42:35.997Z,2.83
2018-05-25T03:45:04.230Z,3.20
2018-05-25T03:47:31.676Z,2.50
2018-05-25T03:49:59.139Z,3.00
2018-05-25T03:52:26.590Z,2.63
2018-05-25T03:54:54.005Z,2.83
2018-05-25T03:57:22.318Z,2.90
2018-05-25T04:00:02.057Z,2.67
2018-05-25T04:02:29.546Z,2.90
2018-05-25T04:04:56.972Z,2.60
2018-05-25T04:07:24.437Z,3.07
2018-05-25T04:09:51.873Z,3.13
2018-05-25T04:12:20.081Z,2.60
2018-05-25T04:14:47.666Z,2.73
2018-05-25T04:17:15.225Z,3.10
2018-05-25T04:19:43.501Z,2.70
2018-05-25T04:22:12.466Z,2.57
2018-05-25T04:24:40.657Z,2.57
2018-05-25T04:27:08.141Z,3.47
2018-05-25T04:29:36.457Z,3.00
2018-05-25T04:32:03.946Z,2.90
2018-05-25T04:34:31.613Z,2.90
2018-05-25T04:36:59.037Z,3.23
2018-05-25T04:39:26.558Z,2.50
2018-05-25T04:41:54.114Z,2.60
2018-05-25T04:44:21.534Z,2.80
2018-05-25T04:46:48.959Z,3.00
2018-05-25T04:49:16.697Z,2.87
2018-05-25T04:51:45.637Z,3.30
2018-05-25T04:54:13.095Z,2.57
2018-05-25T04:56:40.566Z,2.70
2018-05-25T04:59:08.054Z,2.40
2018-05-25T05:01:35.567Z,2.80
2018-05-25T05:04:03.237Z,2.83
2018-05-25T05:06:30.650Z,2.70
2018-05-25T05:08:59.478Z,2.47
2018-05-25T05:11:27.037Z,3.00
2018-05-25T05:13:55.135Z,2.43
2018-05-25T05:16:22.554Z,2.70
2018-05-25T05:18:50.049Z,2.57
2018-05-25T05:21:17.470Z,2.50
2018-05-25T05:23:44.903Z,2.77
2018-05-25T05:26:13.246Z,3.07
2018-05-25T05:28:40.665Z,2.80
2018-05-25T05:31:08.093Z,2.83
2018-05-25T05:33:36.469Z,2.60
2018-05-25T05:36:03.873Z,2.62
2018-05-25T05:38:31.333Z,2.53
2018-05-25T05:40:58.829Z,2.80
2018-05-25T05:43:26.909Z,3.20
2018-05-25T05:45:55.281Z,2.35
2018-05-25T05:48:23.517Z,2.65
2018-05-25T05:50:50.961Z,2.70
2018-05-25T05:53:19.121Z,3.03
2018-05-25T05:55:46.810Z,2.42
2018-05-25T05:58:15.106Z,2.67
2018-05-25T06:00:42.509Z,2.40
2018-05-25T06:03:10.702Z,2.60
2018-05-25T06:05:38.888Z,2.80
2018-05-25T06:08:06.382Z,2.47
2018-05-25T06:10:34.574Z,2.47
2018-05-25T06:13:03.030Z,2.55
2018-05-25T06:15:30.455Z,2.65
2018-05-25T06:17:57.873Z,2.60
2018-05-25T06:20:25.374Z,2.75
2018-05-25T06:22:52.938Z,2.72
2018-05-25T06:25:20.424Z,2.28
2018-05-25T06:27:47.885Z,2.33
2018-05-25T06:30:15.417Z,2.42
2018-05-25T06:32:43.742Z,2.35
2018-05-25T06:35:11.560Z,2.90
2018-05-25T06:37:38.985Z,2.25
2018-05-25T06:40:07.171Z,2.60
2018-05-25T06:42:34.674Z,2.10
2018-05-25T06:45:02.370Z,2.58
2018-05-25T06:47:30.109Z,2.45
2018-05-25T06:49:57.531Z,2.30
2018-05-25T06:52:25.978Z,2.58
2018-05-25T06:54:54.178Z,2.62
2018-05-25T06:57:21.605Z,2.75
2018-05-25T06:59:49.849Z,2.33
2018-05-25T07:02:17.321Z,2.90
2018-05-25T07:04:44.753Z,2.50
2018-05-25T07:07:12.174Z,2.45
2018-05-25T07:09:39.653Z,2.80
2018-05-25T07:12:07.068Z,2.60
2018-05-25T07:14:34.488Z,2.60
2018-05-25T07:17:01.964Z,2.42
2018-05-25T07:19:29.357Z,2.47
2018-05-25T07:21:57.683Z,2.62
2018-05-25T07:24:25.097Z,2.65
2018-05-25T07:26:52.529Z,2.58
2018-05-25T07:29:19.975Z,2.58
2018-05-25T07:31:48.040Z,2.97
2018-05-25T07:34:15.451Z,2.70
2018-05-25T07:36:42.881Z,2.85
2018-05-25T07:39:11.084Z,2.50
2018-05-25T07:41:38.502Z,2.67
2018-05-25T07:44:05.963Z,3.22
2018-05-25T07:46:33.670Z,2.60
2018-05-25T07:49:01.093Z,2.58
2018-05-25T07:51:29.809Z,2.05
2018-05-25T07:53:57.276Z,2.78
2018-05-25T07:56:24.744Z,2.42
2018-05-25T07:58:52.302Z,2.80
2018-05-25T08:01:20.602Z,2.62
2018-05-25T08:03:48.058Z,2.72
2018-05-25T08:06:15.477Z,1.95
2018-05-25T08:08:43.473Z,2.30
2018-05-25T08:11:11.053Z,2.53
2018-05-25T08:13:38.584Z,2.42
2018-05-25T08:16:06.481Z,2.53
2018-05-25T08:18:33.915Z,2.60
2018-05-25T08:21:01.399Z,3.28
2018-05-25T08:23:29.028Z,2.65
2018-05-25T08:25:56.514Z,2.87
2018-05-25T08:28:23.934Z,2.80
2018-05-25T08:30:51.589Z,2.70
2018-05-25T08:33:19.020Z,2.50
2018-05-25T08:35:48.430Z,2.62
2018-05-25T08:38:16.689Z,2.90
2018-05-25T08:40:44.205Z,3.00
2018-05-25T08:43:11.984Z,2.85
2018-05-25T08:45:39.398Z,2.30
2018-05-25T08:48:07.674Z,2.45
2018-05-25T08:50:35.871Z,3.15
2018-05-25T08:53:03.291Z,2.87
2018-05-25T08:55:30.719Z,2.87
2018-05-25T08:57:58.287Z,2.85
2018-05-25T09:00:25.705Z,3.00
2018-05-25T09:02:53.241Z,2.87
2018-05-25T09:05:21.444Z,3.03
2018-05-25T09:07:48.904Z,3.10
2018-05-25T09:10:16.990Z,2.70
2018-05-25T09:12:44.649Z,2.97
2018-05-25T09:15:12.065Z,2.83
2018-05-25T09:17:40.325Z,3.03
2018-05-25T09:20:08.558Z,2.72
2018-05-25T09:22:36.807Z,2.53
2018-05-25T09:25:04.247Z,2.62
2018-05-25T09:27:33.432Z,2.87
2018-05-25T09:30:00.875Z,2.87
2018-05-25T09:32:29.069Z,3.08
2018-05-25T09:34:57.298Z,2.75
2018-05-25T09:37:24.958Z,2.83
2018-05-25T09:39:52.386Z,2.90
2018-05-25T09:42:20.574Z,3.10
2018-05-25T09:44:48.247Z,2.97
2018-05-25T09:47:15.714Z,2.90
2018-05-25T09:49:43.134Z,2.80
2018-05-25T09:52:11.390Z,2.70
2018-05-25T09:54:40.336Z,2.42
2018-05-25T09:57:07.811Z,2.60
2018-05-25T09:59:35.225Z,2.87
2018-05-25T10:02:02.662Z,2.67
2018-05-25T10:04:30.846Z,2.62
2018-05-25T10:06:59.043Z,2.75
2018-05-25T10:09:26.540Z,2.30
2018-05-25T10:11:54.114Z,2.60
2018-05-25T10:14:21.538Z,2.00
2018-05-25T10:16:48.957Z,2.17
2018-05-25T10:19:17.176Z,1.80
2018-05-25T10:21:44.655Z,2.00
2018-05-25T10:24:12.079Z,2.00
2018-05-25T10:26:39.571Z,2.30
2018-05-25T10:29:07.201Z,2.25
2018-05-25T10:31:35.117Z,2.00
2018-05-25T10:34:02.594Z,1.85
2018-05-25T10:36:30.782Z,1.70
2018-05-25T10:38:58.600Z,2.00
2018-05-25T10:41:26.131Z,2.10
2018-05-25T10:43:53.588Z,2.10
2018-05-25T10:46:21.250Z,1.90
2018-05-25T10:48:49.529Z,1.92
2018-05-25T10:51:17.030Z,1.90
2018-05-25T10:53:46.039Z,2.03
2018-05-25T10:56:14.574Z,2.00
2018-05-25T10:58:42.116Z,1.90
2018-05-25T11:01:09.594Z,2.03
2018-05-25T11:03:37.066Z,1.90
2018-05-25T11:06:04.486Z,2.42
2018-05-25T11:08:31.907Z,2.20
2018-05-25T11:11:00.106Z,2.20
2018-05-25T11:13:28.294Z,2.10
2018-05-25T11:15:55.755Z,2.12
2018-05-25T11:18:23.174Z,2.10
2018-05-25T11:20:50.598Z,2.10
2018-05-25T11:23:18.190Z,2.47
2018-05-25T11:25:45.605Z,2.40
2018-05-25T11:28:13.026Z,1.98
2018-05-25T11:30:41.241Z,2.05
2018-05-25T11:33:09.128Z,2.08
2018-05-25T11:35:36.743Z,1.65
2018-05-25T11:38:04.202Z,2.30
2018-05-25T11:40:31.625Z,2.22
2018-05-25T11:42:59.573Z,2.22
2018-05-25T11:45:27.053Z,2.20
2018-05-25T11:47:54.487Z,2.55
2018-05-25T11:50:22.047Z,2.10
2018-05-25T11:52:49.637Z,1.80
2018-05-25T11:55:17.151Z,2.20
2018-05-25T11:57:44.599Z,2.08
2018-05-25T12:00:12.222Z,2.20
2018-05-25T12:02:41.166Z,2.12
2018-05-25T12:05:09.048Z,2.17
2018-05-25T12:07:37.297Z,1.98
2018-05-25T12:10:04.722Z,2.00
2018-05-25T12:12:32.956Z,1.83
2018-05-25T12:15:00.462Z,1.83
2018-05-25T12:17:28.651Z,2.10
2018-05-25T12:19:56.125Z,2.12
2018-05-25T12:22:23.894Z,2.10
2018-05-25T12:24:51.330Z,1.55
2018-05-25T12:27:19.503Z,1.80
2018-05-25T12:29:46.933Z,2.10
2018-05-25T12:32:14.354Z,2.10
2018-05-25T12:34:42.134Z,1.70
2018-05-25T12:37:09.561Z,1.90
2018-05-25T12:39:37.029Z,1.80
2018-05-25T12:42:04.598Z,1.90
2018-05-25T12:44:43.858Z,2.00
2018-05-25T12:47:12.805Z,2.25
2018-05-25T12:49:40.226Z,1.90
2018-05-25T12:52:08.418Z,2.03
2018-05-25T12:54:35.942Z,1.80
2018-05-25T12:57:04.127Z,2.17
2018-05-25T12:59:32.319Z,1.80
2018-05-25T13:02:00.550Z,2.08
2018-05-25T13:04:27.994Z,1.90
2018-05-25T13:06:55.423Z,2.10
2018-05-25T13:09:23.101Z,1.90
2018-05-25T13:11:50.528Z,1.90
2018-05-25T13:14:19.082Z,2.10
2018-05-25T13:16:47.577Z,1.90
2018-05-25T13:19:15.766Z,1.77
2018-05-25T13:21:43.984Z,1.80
2018-05-25T13:24:11.412Z,1.80
2018-05-25T13:26:39.127Z,1.60
2018-05-25T13:29:06.558Z,2.20
2018-05-25T13:31:33.985Z,1.92
2018-05-25T13:34:02.819Z,2.10
2018-05-25T13:36:30.403Z,2.10
2018-05-25T13:38:57.862Z,1.92
2018-05-25T13:41:25.290Z,1.90
2018-05-25T13:43:52.738Z,2.10
2018-05-25T13:46:20.179Z,2.15
2018-05-25T13:48:47.779Z,2.05
2018-05-25T13:51:15.541Z,1.90
2018-05-25T13:53:42.954Z,1.92
2018-05-25T13:56:10.642Z,2.30
2018-05-25T13:58:38.071Z,2.00
2018-05-25T14:01:06.379Z,2.40
2018-05-25T14:03:33.915Z,2.30
2018-05-25T14:06:01.454Z,2.22
2018-05-25T14:08:28.816Z,2.08
2018-05-25T14:10:57.050Z,2.00
2018-05-25T14:13:25.022Z,1.73
2018-05-25T14:15:52.556Z,1.60
2018-05-25T14:18:20.158Z,1.48
2018-05-25T14:20:47.694Z,1.60
2018-05-25T14:23:15.115Z,1.50
2018-05-25T14:25:42.618Z,1.50
2018-05-25T14:28:10.155Z,1.50
2018-05-25T14:30:37.650Z,1.40
2018-05-25T14:33:05.851Z,1.25
2018-05-25T14:35:34.042Z,1.45
2018-05-25T14:38:01.468Z,1.42
2018-05-25T14:40:28.911Z,1.40
2018-05-25T14:42:56.450Z,1.33
2018-05-25T14:45:23.895Z,1.10
2018-05-25T14:47:52.098Z,1.20
2018-05-25T14:50:19.515Z,1.10
2018-05-25T14:52:46.943Z,1.15
2018-05-25T14:55:15.182Z,1.20
2018-05-25T14:57:43.267Z,1.15
2018-05-25T15:00:10.794Z,1.10
2018-05-25T15:02:39.186Z,1.10
2018-05-25T15:05:06.610Z,1.40
2018-05-25T15:07:34.096Z,1.40
2018-05-25T15:10:02.173Z,1.40
2018-05-25T15:12:29.589Z,1.30
2018-05-25T15:14:57.842Z,1.30
2018-05-25T15:17:25.261Z,1.45
2018-05-25T15:19:52.678Z,1.10
2018-05-25T15:22:21.191Z,1.50
2018-05-25T15:24:48.614Z,1.52
2018-05-25T15:27:16.806Z,1.50
2018-05-25T15:29:44.250Z,1.52
2018-05-25T15:32:12.442Z,1.50
2018-05-25T15:34:40.022Z,1.50
2018-05-25T15:37:07.474Z,1.65
2018-05-25T15:39:34.905Z,1.30
2018-05-25T15:42:03.082Z,1.25
2018-05-25T15:44:30.523Z,1.52
2018-05-25T15:46:59.742Z,1.10
2018-05-25T15:49:27.166Z,1.20
2018-05-25T15:51:54.787Z,1.40
2018-05-25T15:54:22.217Z,1.37
2018-05-25T15:56:50.702Z,1.60
2018-05-25T15:59:18.162Z,1.10
2018-05-25T16:01:45.578Z,1.75
2018-05-25T16:04:13.802Z,1.48
2018-05-25T16:06:41.250Z,1.45
2018-05-25T16:09:08.738Z,1.15
2018-05-25T16:11:36.481Z,1.30
2018-05-25T16:14:04.273Z,0.95
2018-05-25T16:16:31.703Z,0.80
2018-05-25T16:18:59.199Z,1.12
2018-05-25T16:21:26.626Z,1.02
2018-05-25T16:23:54.730Z,1.00
2018-05-25T16:26:22.170Z,1.10
2018-05-25T16:28:49.609Z,1.10
2018-05-25T16:31:17.915Z,0.90
2018-05-25T16:33:45.334Z,0.90
2018-05-25T16:36:12.762Z,0.93
2018-05-25T16:38:40.642Z,0.75
2018-05-25T16:41:08.858Z,0.75
2018-05-25T16:43:36.316Z,1.10
2018-05-25T16:46:03.811Z,0.77
2018-05-25T16:48:31.252Z,0.70
2018-05-25T16:50:58.671Z,0.62
2018-05-25T16:53:26.134Z,0.80
2018-05-25T16:55:53.586Z,0.65
2018-05-25T16:58:21.793Z,0.62
2018-05-25T17:00:49.218Z,0.43
2018-05-25T17:03:16.701Z,0.75
2018-05-25T17:05:44.595Z,0.80
2018-05-25T17:08:12.013Z,0.60
2018-05-25T17:10:39.438Z,0.80
2018-05-25T17:13:07.642Z,0.70
2018-05-25T17:15:35.238Z,0.75
2018-05-25T17:18:02.658Z,0.70
2018-05-25T17:20:30.114Z,0.60
2018-05-25T17:22:57.574Z,0.80
2018-05-25T17:25:25.007Z,0.85
2018-05-25T17:27:53.222Z,0.60
2018-05-25T17:30:20.959Z,1.30
2018-05-25T17:32:49.167Z,0.68
2018-05-25T17:35:16.636Z,0.65
2018-05-25T17:37:44.091Z,0.57
2018-05-25T17:40:11.555Z,0.93
2018-05-25T17:42:38.993Z,0.82
2018-05-25T17:45:06.421Z,0.90
2018-05-25T17:47:35.245Z,0.62
2018-05-25T17:50:02.666Z,1.27
2018-05-25T17:52:30.866Z,0.68
2018-05-25T17:54:58.313Z,0.73
2018-05-25T17:57:25.898Z,0.80
2018-05-25T17:59:53.317Z,0.90
2018-05-25T18:02:21.509Z,1.00
2018-05-25T18:04:49.103Z,1.00
2018-05-25T18:09:54.967Z,0.90
2018-05-25T18:12:22.393Z,0.80
2018-05-25T18:14:50.599Z,1.00
2018-05-25T18:17:19.084Z,1.25
2018-05-25T18:19:46.504Z,1.25
2018-05-25T18:22:14.724Z,0.80
2018-05-25T18:24:42.372Z,1.10
2018-05-25T18:27:10.636Z,0.88
2018-05-25T18:29:38.211Z,0.80
2018-05-25T18:32:05.666Z,1.02
2018-05-25T18:34:33.588Z,0.80
2018-05-25T18:37:01.116Z,1.00
2018-05-25T18:39:28.534Z,1.10
2018-05-25T18:41:56.001Z,1.10
2018-05-25T18:44:23.432Z,1.05
2018-05-25T18:46:51.642Z,1.30
2018-05-25T18:49:19.127Z,1.03
2018-05-25T18:51:46.604Z,2.00
2018-05-25T18:54:26.010Z,1.00
2018-05-25T18:56:53.978Z,0.73
2018-05-25T18:59:21.559Z,0.90
2018-05-25T19:01:49.255Z,0.90
2018-05-25T19:04:18.082Z,0.97
2018-05-25T19:06:46.418Z,0.97
2018-05-25T19:09:14.631Z,0.90
2018-05-25T19:11:42.075Z,0.87
2018-05-25T19:14:09.555Z,1.00
2018-05-25T19:16:36.969Z,0.95
2018-05-25T19:19:06.286Z,0.87
2018-05-25T19:21:33.710Z,0.80
2018-05-25T19:24:01.167Z,0.80
2018-05-25T19:26:29.531Z,0.90
2018-05-25T19:28:57.114Z,0.90
2018-05-25T19:31:25.129Z,0.60
2018-05-25T19:33:52.550Z,0.67
2018-05-25T19:36:20.802Z,0.90
2018-05-25T19:38:48.246Z,0.80
2018-05-25T19:41:15.676Z,1.03
2018-05-25T19:43:43.172Z,0.90
2018-05-25T19:46:11.235Z,0.93
2018-05-25T19:48:38.666Z,0.60
2018-05-25T19:51:06.134Z,0.80
2018-05-25T19:53:34.523Z,0.80
2018-05-25T19:56:02.638Z,0.87
2018-05-25T19:58:30.957Z,0.77
2018-05-25T20:00:58.367Z,0.80
2018-05-25T20:03:25.815Z,0.80
2018-05-25T20:05:53.248Z,0.70
2018-05-25T20:08:21.069Z,0.80
2018-05-25T20:10:48.491Z,0.70
2018-05-25T20:13:16.520Z,1.00
2018-05-25T20:15:43.983Z,1.10
2018-05-25T20:18:11.479Z,0.83
2018-05-25T20:20:38.907Z,0.90
2018-05-25T20:23:06.542Z,0.90
2018-05-25T20:25:34.003Z,0.90
2018-05-25T20:28:01.482Z,0.87
2018-05-25T20:30:28.944Z,1.03
2018-05-25T20:32:56.377Z,0.73
2018-05-25T20:35:24.490Z,1.10
2018-05-25T20:37:52.459Z,1.00
2018-05-25T20:40:19.995Z,1.13
2018-05-25T20:42:47.555Z,0.97
2018-05-25T20:45:15.007Z,1.00
2018-05-25T20:47:42.431Z,1.10
2018-05-25T20:50:10.768Z,0.80
2018-05-25T20:52:38.190Z,1.00
2018-05-25T20:55:05.658Z,0.90
2018-05-25T20:57:33.447Z,0.97
2018-05-25T21:00:05.007Z,1.30
2018-05-25T21:02:32.540Z,1.07
2018-05-25T21:05:00.038Z,0.90
2018-05-25T21:07:27.585Z,1.10
2018-05-25T21:09:55.014Z,1.00
2018-05-25T21:12:22.546Z,1.27
2018-05-25T21:14:49.950Z,1.40
2018-05-25T21:17:17.384Z,1.47
2018-05-25T21:19:45.051Z,1.07
2018-05-25T21:22:13.555Z,1.50
2018-05-25T21:24:41.089Z,1.30
2018-05-25T21:27:08.498Z,1.20
2018-05-25T21:29:35.947Z,1.30
2018-05-25T21:32:03.376Z,1.70
2018-05-25T21:34:31.046Z,1.70
2018-05-25T21:36:58.763Z,1.20
2018-05-25T21:39:26.961Z,1.50
2018-05-25T21:41:54.625Z,1.27
2018-05-25T21:44:22.098Z,1.30
2018-05-25T21:46:49.517Z,1.40
2018-05-25T21:49:16.999Z,1.40
2018-05-25T21:51:44.442Z,1.50
2018-05-25T21:54:11.886Z,1.33
2018-05-25T21:56:40.091Z,1.23
2018-05-25T21:59:08.167Z,1.70
2018-05-25T22:01:35.650Z,1.70
2018-05-25T22:04:03.074Z,1.67
2018-05-25T22:06:30.995Z,1.70
2018-05-25T22:08:58.558Z,1.67
2018-05-25T22:11:25.979Z,1.50
2018-05-25T22:13:53.404Z,1.60
2018-05-25T22:16:21.077Z,1.63
2018-05-25T22:18:48.458Z,1.90
2018-05-25T22:21:15.902Z,1.70
2018-05-25T22:23:43.352Z,1.87
2018-05-25T22:26:10.835Z,2.13
2018-05-25T22:28:38.479Z,2.10
2018-05-25T22:31:05.949Z,1.97
2018-05-25T22:33:34.627Z,2.33
2018-05-25T22:36:02.067Z,2.50
2018-05-25T22:38:31.404Z,2.13
2018-05-25T22:40:58.969Z,2.40
2018-05-25T22:43:38.326Z,2.30
2018-05-25T22:46:18.470Z,3.10
2018-05-25T22:48:57.934Z,2.87
2018-05-25T22:51:38.069Z,3.13
2018-05-25T22:54:10.630Z,3.80
2018-05-25T22:56:38.058Z,3.63
2018-05-25T22:59:05.479Z,3.50
2018-05-25T23:01:33.686Z,3.50
2018-05-25T23:04:01.109Z,3.83
2018-05-25T23:06:29.351Z,4.60
2018-05-25T23:08:56.838Z,4.50
2018-05-25T23:11:25.060Z,4.20
2018-05-25T23:13:52.667Z,6.07
2018-05-25T23:16:20.087Z,5.80
2018-05-25T23:18:47.559Z,5.47
2018-05-25T23:21:14.993Z,4.73
2018-05-25T23:23:42.411Z,6.17
2018-05-25T23:26:10.922Z,5.80
2018-05-25T23:28:38.584Z,6.27
2018-05-25T23:31:06.302Z,5.10
2018-05-25T23:33:34.527Z,5.73
2018-05-25T23:36:03.384Z,6.27
2018-05-25T23:38:31.594Z,6.00
2018-05-25T23:40:59.074Z,6.47
2018-05-25T23:43:26.501Z,6.60
2018-05-25T23:45:53.977Z,6.27
2018-05-25T23:48:21.400Z,6.63
2018-05-25T23:50:48.884Z,7.57
2018-05-25T23:53:16.318Z,7.53
2018-05-25T23:55:51.923Z,7.47
2018-05-25T23:58:19.353Z,8.77
